AUA120 LOWG-LOWW
Flight info
| Callsign | AUA120 |
|---|---|
| Flight time | 0h 19m |
| Altitude | 13000 |
| Route | ROPAG DCT NIGSI NIGSI2W |
| Aircraft | A321/M-SDE2E3FGHIJ1RWXY/LB1 |
Departure
| Time | 2026-04-22 15:16 |
|---|---|
| Airport | Graz Airport (LOWG) |
Arrival
| Time | 2026-04-22 15:35 |
|---|---|
| Airport | Vienna International Airport (LOWW) |
| Time | Latitude | Longitude | Altitude | Speed | Heading |
|---|---|---|---|---|---|
| 2026-04-22 15:06 | 46.99653 | 15.44288 | 1110 ft | 0 kts | 126° |
| 2026-04-22 15:12 | 46.99646 | 15.44295 | 1109 ft | 4 kts | 165° |
| 2026-04-22 15:13 | 46.99640 | 15.44247 | 1115 ft | 8 kts | 297° |
| 2026-04-22 15:13 | 46.99706 | 15.44200 | 1115 ft | 13 kts | 345° |
| 2026-04-22 15:13 | 46.99808 | 15.44171 | 1111 ft | 16 kts | 348° |
| 2026-04-22 15:13 | 46.99916 | 15.44130 | 1114 ft | 14 kts | 317° |
| 2026-04-22 15:14 | 46.99921 | 15.43981 | 1110 ft | 17 kts | 238° |
| 2026-04-22 15:14 | 46.99812 | 15.43897 | 1113 ft | 20 kts | 192° |
| 2026-04-22 15:14 | 46.99726 | 15.43826 | 1110 ft | 6 kts | 242° |
| 2026-04-22 15:14 | 46.99682 | 15.43805 | 1109 ft | 0 kts | 171° |
| 2026-04-22 15:15 | 46.99636 | 15.43817 | 1108 ft | 34 kts | 169° |
| 2026-04-22 15:15 | 46.99124 | 15.43958 | 1114 ft | 113 kts | 169° |
| 2026-04-22 15:15 | 46.98143 | 15.44228 | 1201 ft | 162 kts | 168° |
| 2026-04-22 15:16 | 46.97081 | 15.44515 | 2088 ft | 153 kts | 168° |
| 2026-04-22 15:16 | 46.96018 | 15.44973 | 2524 ft | 165 kts | 147° |
| 2026-04-22 15:16 | 46.95292 | 15.46310 | 2671 ft | 182 kts | 107° |
| 2026-04-22 15:16 | 46.95191 | 15.48183 | 2946 ft | 193 kts | 71° |
| 2026-04-22 15:17 | 46.95966 | 15.49812 | 3283 ft | 206 kts | 38° |
| 2026-04-22 15:17 | 46.97158 | 15.51168 | 3660 ft | 228 kts | 36° |
| 2026-04-22 15:17 | 46.98438 | 15.52634 | 4164 ft | 245 kts | 37° |
| 2026-04-22 15:17 | 46.99798 | 15.54222 | 4933 ft | 253 kts | 37° |
| 2026-04-22 15:18 | 47.01186 | 15.55852 | 5733 ft | 260 kts | 37° |
| 2026-04-22 15:18 | 47.02596 | 15.57507 | 6654 ft | 260 kts | 37° |
| 2026-04-22 15:18 | 47.04012 | 15.59160 | 7486 ft | 262 kts | 37° |
| 2026-04-22 15:18 | 47.05445 | 15.60837 | 8305 ft | 265 kts | 37° |
| 2026-04-22 15:19 | 47.06888 | 15.62534 | 9119 ft | 268 kts | 37° |
| 2026-04-22 15:19 | 47.08348 | 15.64259 | 9908 ft | 271 kts | 37° |
| 2026-04-22 15:19 | 47.09840 | 15.66026 | 10416 ft | 284 kts | 37° |
| 2026-04-22 15:19 | 47.11428 | 15.67907 | 10687 ft | 303 kts | 37° |
| 2026-04-22 15:20 | 47.12534 | 15.69225 | 10851 ft | 316 kts | 37° |
| 2026-04-22 15:20 | 47.14906 | 15.72039 | 11161 ft | 339 kts | 37° |
| 2026-04-22 15:20 | 47.16790 | 15.74267 | 11386 ft | 355 kts | 37° |
| 2026-04-22 15:20 | 47.18749 | 15.76571 | 11739 ft | 365 kts | 37° |
| 2026-04-22 15:21 | 47.20739 | 15.78929 | 12114 ft | 368 kts | 37° |
| 2026-04-22 15:21 | 47.22734 | 15.81299 | 12209 ft | 369 kts | 38° |
| 2026-04-22 15:21 | 47.24734 | 15.83686 | 12209 ft | 371 kts | 37° |
| 2026-04-22 15:21 | 47.26736 | 15.86067 | 12204 ft | 370 kts | 38° |
| 2026-04-22 15:22 | 47.28732 | 15.88445 | 12200 ft | 369 kts | 37° |
| 2026-04-22 15:22 | 47.30733 | 15.90825 | 12192 ft | 370 kts | 37° |
| 2026-04-22 15:22 | 47.32733 | 15.93204 | 12189 ft | 369 kts | 38° |
| 2026-04-22 15:22 | 47.34722 | 15.95581 | 12192 ft | 368 kts | 38° |
| 2026-04-22 15:23 | 47.36708 | 15.97957 | 12202 ft | 367 kts | 38° |
| 2026-04-22 15:23 | 47.38690 | 16.00329 | 12195 ft | 367 kts | 38° |
| 2026-04-22 15:23 | 47.40675 | 16.02704 | 12196 ft | 367 kts | 38° |
| 2026-04-22 15:23 | 47.42656 | 16.05077 | 12194 ft | 367 kts | 38° |
| 2026-04-22 15:24 | 47.44641 | 16.07457 | 12192 ft | 367 kts | 38° |
| 2026-04-22 15:24 | 47.46621 | 16.09837 | 12056 ft | 366 kts | 38° |
| 2026-04-22 15:24 | 47.48603 | 16.12204 | 11846 ft | 366 kts | 38° |
| 2026-04-22 15:24 | 47.50573 | 16.14572 | 11511 ft | 364 kts | 37° |
| 2026-04-22 15:25 | 47.52531 | 16.16902 | 11070 ft | 360 kts | 37° |
| 2026-04-22 15:25 | 47.54465 | 16.19238 | 10585 ft | 358 kts | 38° |
| 2026-04-22 15:25 | 47.56385 | 16.21559 | 10104 ft | 355 kts | 38° |
| 2026-04-22 15:25 | 47.58297 | 16.23861 | 9563 ft | 353 kts | 38° |
| 2026-04-22 15:26 | 47.60202 | 16.26160 | 9023 ft | 352 kts | 37° |
| 2026-04-22 15:26 | 47.62058 | 16.28413 | 8500 ft | 348 kts | 37° |
| 2026-04-22 15:26 | 47.63933 | 16.30690 | 7971 ft | 348 kts | 37° |
| 2026-04-22 15:26 | 47.65800 | 16.32951 | 7474 ft | 345 kts | 37° |
| 2026-04-22 15:27 | 47.67654 | 16.35202 | 6960 ft | 344 kts | 37° |
| 2026-04-22 15:27 | 47.69502 | 16.37449 | 6488 ft | 342 kts | 37° |
| 2026-04-22 15:27 | 47.71336 | 16.39671 | 6009 ft | 339 kts | 37° |
| 2026-04-22 15:27 | 47.73163 | 16.41889 | 5541 ft | 339 kts | 37° |
| 2026-04-22 15:28 | 47.74977 | 16.44101 | 5120 ft | 335 kts | 37° |
| 2026-04-22 15:28 | 47.76777 | 16.46298 | 4677 ft | 335 kts | 37° |
| 2026-04-22 15:28 | 47.78564 | 16.48483 | 4235 ft | 332 kts | 37° |
| 2026-04-22 15:28 | 47.80348 | 16.50659 | 3867 ft | 329 kts | 37° |
| 2026-04-22 15:29 | 47.82118 | 16.52821 | 3578 ft | 329 kts | 37° |
| 2026-04-22 15:29 | 47.83885 | 16.54984 | 3368 ft | 329 kts | 37° |
| 2026-04-22 15:29 | 47.85651 | 16.57154 | 3215 ft | 327 kts | 37° |
| 2026-04-22 15:30 | 47.88549 | 16.60706 | 3072 ft | 307 kts | 37° |
| 2026-04-22 15:30 | 47.90637 | 16.63268 | 2994 ft | 280 kts | 37° |
| 2026-04-22 15:30 | 47.92155 | 16.64895 | 2959 ft | 256 kts | 21° |
| 2026-04-22 15:30 | 47.93788 | 16.65420 | 2957 ft | 232 kts | 357° |
| 2026-04-22 15:31 | 47.95306 | 16.65070 | 2972 ft | 216 kts | 344° |
| 2026-04-22 15:31 | 47.96675 | 16.64421 | 2977 ft | 197 kts | 342° |
| 2026-04-22 15:31 | 47.97934 | 16.63793 | 2853 ft | 184 kts | 342° |
| 2026-04-22 15:31 | 47.99119 | 16.63254 | 2698 ft | 174 kts | 343° |
| 2026-04-22 15:32 | 48.00261 | 16.62764 | 2443 ft | 166 kts | 344° |
| 2026-04-22 15:32 | 48.01332 | 16.62310 | 2185 ft | 154 kts | 345° |
| 2026-04-22 15:32 | 48.02325 | 16.61891 | 1987 ft | 146 kts | 345° |
| 2026-04-22 15:32 | 48.03209 | 16.61518 | 1798 ft | 138 kts | 345° |
| 2026-04-22 15:33 | 48.04100 | 16.61142 | 1599 ft | 131 kts | 346° |
| 2026-04-22 15:33 | 48.04979 | 16.60771 | 1420 ft | 131 kts | 345° |
| 2026-04-22 15:33 | 48.05859 | 16.60400 | 1233 ft | 131 kts | 345° |
| 2026-04-22 15:33 | 48.06742 | 16.60029 | 1042 ft | 132 kts | 345° |
| 2026-04-22 15:34 | 48.07619 | 16.59656 | 860 ft | 131 kts | 345° |
| 2026-04-22 15:34 | 48.08477 | 16.59299 | 732 ft | 127 kts | 346° |
| 2026-04-22 15:34 | 48.09323 | 16.58939 | 626 ft | 120 kts | 346° |
| 2026-04-22 15:34 | 48.09991 | 16.58660 | 626 ft | 76 kts | 345° |
| 2026-04-22 15:35 | 48.10254 | 16.58543 | 623 ft | 46 kts | 344° |
| 2026-04-22 15:35 | 48.10624 | 16.58377 | 626 ft | 30 kts | 333° |
| 2026-04-22 15:35 | 48.10798 | 16.58178 | 620 ft | 33 kts | 315° |
| 2026-04-22 15:35 | 48.10898 | 16.58029 | 626 ft | 25 kts | 317° |
| 2026-04-22 15:36 | 48.11064 | 16.57928 | 620 ft | 28 kts | 344° |
| 2026-04-22 15:36 | 48.11257 | 16.57843 | 618 ft | 30 kts | 343° |
| 2026-04-22 15:36 | 48.11542 | 16.57724 | 620 ft | 34 kts | 344° |
| 2026-04-22 15:36 | 48.11751 | 16.57631 | 624 ft | 29 kts | 344° |
| 2026-04-22 15:37 | 48.11876 | 16.57575 | 615 ft | 25 kts | 355° |
| 2026-04-22 15:37 | 48.12013 | 16.57472 | 615 ft | 23 kts | 268° |
| 2026-04-22 15:37 | 48.11943 | 16.57288 | 615 ft | 21 kts | 165° |
| 2026-04-22 15:37 | 48.11844 | 16.57220 | 621 ft | 22 kts | 280° |
| 2026-04-22 15:38 | 48.11845 | 16.57067 | 624 ft | 15 kts | 208° |
| 2026-04-22 15:38 | 48.11812 | 16.57042 | 622 ft | 0 kts | 206° |